East Bridgewater, Massachusetts
Current Conditions -  °F | °C
As of 1:52 PM on Monday 20 Oct 2014 (Local Time) from KTAN Reporting Station
Clear Clear  
Wind Chill: 56°   Ceiling: Unl
Heat Index: 56°   Visibility: 10mi
Dew Point: 31°   Wind: 8mph
Humidity: 39%   Direction: 220°SW
Pressure: 30.01"   Gusts: NA
Location:  42.03°N, 70.96°W
Report Text: KTAN 201752Z AUTO 22007KT 10SM CLR 13/M01 A3001 RMK AO2 SLP161 T01331006 10139 20011 58022
Loading
Personal Weather Stations






























Interactive Weather Map
Tropical Storm Tracking
New forecast layout! Learn more

10-Day Weather Forecast

Advertisements
Track Severe Weather on mobile